createdAt,value
2022-12-17T00:02:37.797Z,-1.50
2022-12-17T00:05:24.480Z,-1.50
2022-12-17T00:08:17.653Z,-1.50
2022-12-17T00:11:03.812Z,-1.50
2022-12-17T00:13:49.177Z,-1.50
2022-12-17T00:16:35.077Z,-1.50
2022-12-17T00:19:20.769Z,-1.50
2022-12-17T00:22:06.293Z,-1.50
2022-12-17T00:24:52.131Z,-1.50
2022-12-17T00:27:37.276Z,-1.50
2022-12-17T00:30:23.164Z,-1.60
2022-12-17T00:33:09.865Z,-1.60
2022-12-17T00:35:55.854Z,-1.60
2022-12-17T00:38:42.166Z,-1.60
2022-12-17T00:41:27.821Z,-1.60
2022-12-17T00:44:13.414Z,-1.60
2022-12-17T00:46:58.746Z,-1.50
2022-12-17T00:49:44.675Z,-1.60
2022-12-17T00:52:30.016Z,-1.60
2022-12-17T00:55:15.794Z,-1.50
2022-12-17T00:58:00.969Z,-1.60
2022-12-17T01:00:46.755Z,-1.50
2022-12-17T01:03:36.993Z,-1.50
2022-12-17T01:06:25.655Z,-1.50
2022-12-17T01:09:11.166Z,-1.50
2022-12-17T01:11:56.814Z,-1.50
2022-12-17T01:14:43.724Z,-1.60
2022-12-17T01:17:29.671Z,-1.60
2022-12-17T01:20:15.654Z,-1.60
2022-12-17T01:23:01.014Z,-1.60
2022-12-17T01:25:46.823Z,-1.60
2022-12-17T01:28:32.124Z,-1.60
2022-12-17T01:31:17.911Z,-1.60
2022-12-17T01:34:03.433Z,-1.60
2022-12-17T01:36:48.457Z,-1.60
2022-12-17T01:39:34.197Z,-1.60
2022-12-17T01:42:19.489Z,-1.60
2022-12-17T01:45:14.916Z,-1.60
2022-12-17T01:48:26.414Z,-1.60
2022-12-17T01:51:14.848Z,-1.60
2022-12-17T01:54:04.925Z,-1.60
2022-12-17T01:56:51.553Z,-1.60
2022-12-17T01:59:44.707Z,-1.70
2022-12-17T02:02:29.902Z,-1.70
2022-12-17T02:05:16.790Z,-1.70
2022-12-17T02:08:37.539Z,-1.70
2022-12-17T02:11:33.831Z,-1.70
2022-12-17T02:14:31.560Z,-1.70
2022-12-17T02:17:21.556Z,-1.80
2022-12-17T02:20:22.209Z,-1.80
2022-12-17T02:23:25.263Z,-1.80
2022-12-17T02:26:20.271Z,-1.90
2022-12-17T02:29:10.192Z,-1.90
2022-12-17T02:31:58.971Z,-1.90
2022-12-17T02:34:45.024Z,-1.90
2022-12-17T02:37:30.360Z,-2.00
2022-12-17T02:40:16.709Z,-1.90
2022-12-17T02:43:07.116Z,-1.90
2022-12-17T02:45:55.990Z,-1.90
2022-12-17T02:48:42.816Z,-1.90
2022-12-17T02:51:28.458Z,-1.90
2022-12-17T02:54:14.464Z,-1.90
2022-12-17T02:56:59.580Z,-1.90
2022-12-17T02:59:45.393Z,-1.90
2022-12-17T03:02:34.435Z,-2.00
2022-12-17T03:05:43.939Z,-2.00
2022-12-17T03:08:26.300Z,-2.10
2022-12-17T03:11:12.117Z,-2.10
2022-12-17T03:13:57.606Z,-2.10
2022-12-17T03:16:42.722Z,-2.10
2022-12-17T03:19:29.022Z,-2.10
2022-12-17T03:22:14.903Z,-2.10
2022-12-17T03:25:00.682Z,-2.10
2022-12-17T03:27:45.994Z,-2.10
2022-12-17T03:30:35.992Z,-2.10
2022-12-17T03:33:22.550Z,-2.10
2022-12-17T03:36:12.078Z,-2.00
2022-12-17T03:38:57.767Z,-2.00
2022-12-17T03:41:43.165Z,-2.00
2022-12-17T03:44:28.836Z,-2.00
2022-12-17T03:47:13.880Z,-2.00
2022-12-17T03:49:59.763Z,-2.00
2022-12-17T03:52:45.173Z,-2.00
2022-12-17T03:55:30.795Z,-2.00
2022-12-17T03:58:16.217Z,-1.90
2022-12-17T04:01:02.019Z,-1.90
2022-12-17T04:03:47.566Z,-2.00
2022-12-17T04:06:32.789Z,-2.00
2022-12-17T04:09:18.539Z,-2.00
2022-12-17T04:12:04.024Z,-2.00
2022-12-17T04:14:49.634Z,-2.00
2022-12-17T04:17:34.931Z,-2.00
2022-12-17T04:20:20.661Z,-2.00
2022-12-17T04:23:06.341Z,-2.00
2022-12-17T04:25:51.538Z,-2.00
2022-12-17T04:28:37.109Z,-2.00
2022-12-17T04:31:22.376Z,-2.00
2022-12-17T04:34:08.182Z,-1.90
2022-12-17T04:36:53.301Z,-1.90
2022-12-17T04:39:39.037Z,-1.90
2022-12-17T04:42:24.359Z,-1.90
2022-12-17T04:45:10.342Z,-1.90
2022-12-17T04:47:55.409Z,-1.90
2022-12-17T04:50:42.874Z,-1.90
2022-12-17T04:53:28.747Z,-1.90
2022-12-17T04:56:14.547Z,-1.90
2022-12-17T04:59:00.337Z,-1.90
2022-12-17T05:01:46.181Z,-1.90
2022-12-17T05:04:32.316Z,-1.90
2022-12-17T05:07:31.272Z,-1.90
2022-12-17T05:10:17.230Z,-1.90
2022-12-17T05:13:02.555Z,-1.90
2022-12-17T05:15:52.955Z,-1.90
2022-12-17T05:18:38.855Z,-1.90
2022-12-17T05:21:24.917Z,-1.90
2022-12-17T05:24:10.836Z,-1.90
2022-12-17T05:26:56.109Z,-1.90
2022-12-17T05:29:43.196Z,-1.90
2022-12-17T05:32:28.745Z,-1.90
2022-12-17T05:35:14.417Z,-1.90
2022-12-17T05:37:59.537Z,-1.80
2022-12-17T05:40:45.417Z,-1.90
2022-12-17T05:43:31.445Z,-1.90
2022-12-17T05:46:17.306Z,-1.90
2022-12-17T05:49:03.139Z,-1.90
2022-12-17T05:51:48.509Z,-1.90
2022-12-17T05:54:34.178Z,-1.90
2022-12-17T05:57:19.686Z,-1.90
2022-12-17T06:00:05.525Z,-1.90
2022-12-17T06:02:57.396Z,-1.90
2022-12-17T06:05:43.401Z,-1.90
2022-12-17T06:08:28.905Z,-1.90
2022-12-17T06:11:18.323Z,-1.90
2022-12-17T06:14:05.138Z,-1.80
2022-12-17T06:16:50.652Z,-1.80
2022-12-17T06:19:36.391Z,-1.80
2022-12-17T06:22:21.587Z,-1.80
2022-12-17T06:25:07.402Z,-1.80
2022-12-17T06:27:52.898Z,-1.80
2022-12-17T06:30:38.775Z,-1.80
2022-12-17T06:33:28.968Z,-1.90
2022-12-17T06:36:21.991Z,-1.90
2022-12-17T06:39:09.277Z,-1.90
2022-12-17T06:42:00.571Z,-1.90
2022-12-17T06:44:50.356Z,-2.00
2022-12-17T06:47:35.495Z,-2.00
2022-12-17T06:50:21.322Z,-2.00
2022-12-17T06:53:06.567Z,-2.00
2022-12-17T06:55:52.356Z,-2.00
2022-12-17T06:58:37.904Z,-2.00
2022-12-17T07:01:23.924Z,-2.00
2022-12-17T07:04:09.296Z,-2.00
2022-12-17T07:06:55.076Z,-2.00
2022-12-17T07:09:40.861Z,-2.00
2022-12-17T07:12:26.246Z,-2.00
2022-12-17T07:15:12.011Z,-2.00
2022-12-17T07:17:57.328Z,-2.10
2022-12-17T07:20:42.997Z,-2.10
2022-12-17T07:23:28.465Z,-2.10
2022-12-17T07:26:16.190Z,-2.10
2022-12-17T07:29:01.538Z,-2.10
2022-12-17T07:31:47.588Z,-2.10
2022-12-17T07:34:32.790Z,-2.10
2022-12-17T07:37:20.638Z,-2.10
2022-12-17T07:40:06.480Z,-2.20
2022-12-17T07:42:51.545Z,-2.20
2022-12-17T07:45:42.278Z,-2.20
2022-12-17T07:48:27.715Z,-2.20
2022-12-17T07:51:13.452Z,-2.20
2022-12-17T07:53:58.879Z,-2.20
2022-12-17T07:56:44.733Z,-2.20
2022-12-17T07:59:30.360Z,-2.20
2022-12-17T08:02:15.932Z,-2.20
2022-12-17T08:05:02.171Z,-2.20
2022-12-17T08:07:47.384Z,-2.20
2022-12-17T08:10:33.353Z,-2.30
2022-12-17T08:13:23.944Z,-2.20
2022-12-17T08:16:11.945Z,-2.20
2022-12-17T08:18:57.764Z,-2.20
2022-12-17T08:21:43.585Z,-2.20
2022-12-17T08:24:29.001Z,-2.20
2022-12-17T08:27:14.920Z,-2.10
2022-12-17T08:29:59.965Z,-2.10
2022-12-17T08:32:45.801Z,-2.10
2022-12-17T08:35:31.095Z,-2.10
2022-12-17T08:38:21.437Z,-2.10
2022-12-17T08:41:07.413Z,-2.10
2022-12-17T08:43:52.866Z,-2.00
2022-12-17T08:46:38.724Z,-2.00
2022-12-17T08:49:24.274Z,-2.10
2022-12-17T08:52:10.085Z,-2.10
2022-12-17T08:54:55.614Z,-2.10
2022-12-17T08:57:41.565Z,-2.10
2022-12-17T09:00:28.106Z,-2.00
2022-12-17T09:03:20.422Z,-2.00
2022-12-17T09:06:06.285Z,-2.00
2022-12-17T09:08:51.624Z,-2.00
2022-12-17T09:11:37.238Z,-2.00
2022-12-17T09:14:22.623Z,-2.00
2022-12-17T09:17:08.636Z,-2.00
2022-12-17T09:19:53.760Z,-2.00
2022-12-17T09:22:39.499Z,-2.10
2022-12-17T09:25:25.319Z,-2.10
2022-12-17T09:28:10.856Z,-2.10
2022-12-17T09:30:56.901Z,-2.00
2022-12-17T09:33:41.967Z,-2.10
2022-12-17T09:36:28.239Z,-2.00
2022-12-17T09:39:13.683Z,-2.10
2022-12-17T09:42:02.512Z,-2.10
2022-12-17T09:45:12.199Z,-2.10
2022-12-17T09:48:00.487Z,-2.10
2022-12-17T09:50:46.492Z,-2.10
2022-12-17T09:53:43.668Z,-2.10
2022-12-17T09:56:31.893Z,-2.10
2022-12-17T09:59:17.374Z,-2.10
2022-12-17T10:02:03.534Z,-2.10
2022-12-17T10:04:57.304Z,-2.20
2022-12-17T10:07:50.834Z,-2.20
2022-12-17T10:10:45.800Z,-2.20
2022-12-17T10:13:33.572Z,-2.20
2022-12-17T10:16:19.888Z,-2.10
2022-12-17T10:19:06.274Z,-2.20
2022-12-17T10:21:53.704Z,-2.20
2022-12-17T10:24:38.905Z,-2.20
2022-12-17T10:27:36.229Z,-2.10
2022-12-17T10:30:22.189Z,-2.00
2022-12-17T10:33:14.817Z,-2.00
2022-12-17T10:36:00.717Z,-2.10
2022-12-17T10:38:48.744Z,-2.20
2022-12-17T10:41:41.573Z,-2.20
2022-12-17T10:44:45.253Z,-2.20
2022-12-17T10:47:37.393Z,-2.20
2022-12-17T10:50:35.386Z,-2.20
2022-12-17T10:53:22.163Z,-2.20
2022-12-17T10:56:15.406Z,-2.30
2022-12-17T10:59:04.761Z,-2.20
2022-12-17T11:01:54.583Z,-2.20
2022-12-17T11:05:03.391Z,-2.30
2022-12-17T11:08:02.818Z,-2.30
2022-12-17T11:10:50.728Z,-2.20
2022-12-17T11:13:47.266Z,-2.20
2022-12-17T11:16:44.166Z,-2.20
2022-12-17T11:19:29.241Z,-2.30
2022-12-17T11:22:31.979Z,-2.30
2022-12-17T11:25:26.490Z,-2.30
2022-12-17T11:28:30.951Z,-2.30
2022-12-17T11:31:46.040Z,-2.30
2022-12-17T11:34:54.972Z,-2.20
2022-12-17T11:38:02.213Z,-2.20
2022-12-17T11:40:57.303Z,-2.10
2022-12-17T11:44:19.621Z,-2.20
2022-12-17T11:47:17.709Z,-2.20
2022-12-17T11:50:15.578Z,-2.20
2022-12-17T11:53:27.525Z,-2.20
2022-12-17T11:56:42.154Z,-2.30
2022-12-17T11:59:53.998Z,-2.30
2022-12-17T12:02:53.870Z,-2.30
2022-12-17T12:06:06.003Z,-2.30
2022-12-17T12:09:06.849Z,-2.30
2022-12-17T12:12:02.293Z,-2.20
2022-12-17T12:14:47.415Z,-2.20
2022-12-17T12:18:12.486Z,-2.20
2022-12-17T12:21:18.130Z,-2.30
2022-12-17T12:24:23.086Z,-2.30
2022-12-17T12:27:29.798Z,-2.40
2022-12-17T12:30:28.779Z,-2.30
2022-12-17T12:33:27.855Z,-2.30
2022-12-17T12:36:20.729Z,-2.30
2022-12-17T12:39:09.919Z,-2.30
2022-12-17T12:42:11.926Z,-2.30
2022-12-17T12:45:29.384Z,-2.40
2022-12-17T12:48:41.184Z,-2.40
2022-12-17T12:51:37.813Z,-2.40
2022-12-17T12:54:45.370Z,-2.40
2022-12-17T12:57:52.408Z,-2.40
2022-12-17T13:00:49.882Z,-2.40
2022-12-17T13:03:50.009Z,-2.40
2022-12-17T13:06:49.818Z,-2.40
2022-12-17T13:09:20.781Z,-2.50
2022-12-17T13:12:00.147Z,-2.50
2022-12-17T13:14:34.905Z,-2.50
2022-12-17T13:17:07.488Z,-2.50
2022-12-17T13:19:40.454Z,-2.50
2022-12-17T13:22:16.649Z,-2.60
2022-12-17T13:24:54.374Z,-2.70
2022-12-17T13:27:39.219Z,-2.60
2022-12-17T13:30:17.698Z,-2.60
2022-12-17T13:33:03.971Z,-2.70
2022-12-17T13:35:49.406Z,-2.70
2022-12-17T13:38:48.350Z,-2.70
2022-12-17T13:41:35.542Z,-2.70
2022-12-17T13:44:17.727Z,-2.80
2022-12-17T13:46:48.048Z,-2.80
2022-12-17T13:49:17.799Z,-2.80
2022-12-17T13:51:44.939Z,-2.80
2022-12-17T13:54:19.698Z,-2.90
2022-12-17T13:56:46.899Z,-2.90
2022-12-17T13:59:20.720Z,-2.90
2022-12-17T14:01:50.339Z,-2.90
2022-12-17T14:04:26.433Z,-3.00
2022-12-17T14:06:56.595Z,-3.00
2022-12-17T14:09:34.691Z,-3.10
2022-12-17T14:12:22.356Z,-3.20
2022-12-17T14:14:55.826Z,-3.30
2022-12-17T14:17:28.911Z,-3.20
2022-12-17T14:20:12.939Z,-3.20
2022-12-17T14:22:47.782Z,-3.30
2022-12-17T14:25:21.650Z,-3.30
2022-12-17T14:27:57.680Z,-3.40
2022-12-17T14:31:09.700Z,-3.50
2022-12-17T14:33:29.603Z,-3.50
2022-12-17T14:35:57.793Z,-3.60
2022-12-17T14:38:48.242Z,-3.60
2022-12-17T14:41:32.776Z,-3.60
2022-12-17T14:44:01.739Z,-3.60
2022-12-17T14:46:30.164Z,-3.50
2022-12-17T14:49:01.309Z,-3.50
2022-12-17T14:51:40.404Z,-3.50
2022-12-17T14:54:22.015Z,-3.50
2022-12-17T14:56:50.217Z,-3.50
2022-12-17T14:59:37.648Z,-3.50
2022-12-17T15:02:26.919Z,-3.50
2022-12-17T15:04:58.065Z,-3.50
2022-12-17T15:07:28.272Z,-3.50
2022-12-17T15:09:56.174Z,-3.50
2022-12-17T15:12:24.972Z,-3.50
2022-12-17T15:14:51.630Z,-3.50
2022-12-17T15:17:19.053Z,-3.60
2022-12-17T15:19:45.707Z,-3.70
2022-12-17T15:22:17.478Z,-3.80
2022-12-17T15:24:45.199Z,-3.90
2022-12-17T15:27:14.411Z,-4.00
2022-12-17T15:29:41.240Z,-4.10
2022-12-17T15:32:21.269Z,-4.10
2022-12-17T15:34:48.217Z,-4.20
2022-12-17T15:37:19.780Z,-4.30
2022-12-17T15:39:49.325Z,-4.30
2022-12-17T15:42:34.448Z,-4.40
2022-12-17T15:45:01.033Z,-4.50
2022-12-17T15:47:28.325Z,-4.60
2022-12-17T15:49:54.916Z,-4.60
2022-12-17T15:52:21.888Z,-4.60
2022-12-17T15:54:49.226Z,-4.70
2022-12-17T15:57:18.689Z,-4.70
2022-12-17T15:59:45.651Z,-4.80
2022-12-17T16:02:13.276Z,-4.80
2022-12-17T16:04:40.966Z,-4.80
2022-12-17T16:07:08.326Z,-4.80
2022-12-17T16:09:34.956Z,-4.80
2022-12-17T16:12:02.249Z,-4.90
2022-12-17T16:14:28.845Z,-4.80
2022-12-17T16:16:56.167Z,-4.90
2022-12-17T16:19:23.017Z,-5.00
2022-12-17T16:21:50.379Z,-5.00
2022-12-17T16:24:17.042Z,-5.00
2022-12-17T16:26:44.363Z,-5.00
2022-12-17T16:29:11.209Z,-5.00
2022-12-17T16:31:38.573Z,-5.10
2022-12-17T16:34:09.750Z,-5.10
2022-12-17T16:36:36.943Z,-5.10
2022-12-17T16:39:04.911Z,-5.10
2022-12-17T16:41:32.919Z,-5.10
2022-12-17T16:44:00.594Z,-5.20
2022-12-17T16:46:46.660Z,-5.20
2022-12-17T16:49:14.611Z,-5.20
2022-12-17T16:51:42.401Z,-5.30
2022-12-17T16:54:15.199Z,-5.30
2022-12-17T16:56:43.431Z,-5.40
2022-12-17T16:59:11.567Z,-5.40
2022-12-17T17:01:41.158Z,-5.50
2022-12-17T17:04:09.498Z,-5.50
2022-12-17T17:06:41.928Z,-5.60
2022-12-17T17:09:09.039Z,-5.60
2022-12-17T17:11:36.488Z,-5.70
2022-12-17T17:14:04.087Z,-5.80
2022-12-17T17:16:31.648Z,-5.80
2022-12-17T17:18:58.412Z,-5.80
2022-12-17T17:21:31.748Z,-5.80
2022-12-17T17:24:04.073Z,-5.90
2022-12-17T17:26:31.943Z,-5.80
2022-12-17T17:28:59.743Z,-5.80
2022-12-17T17:32:01.147Z,-5.80
2022-12-17T17:34:15.049Z,-5.80
2022-12-17T17:36:42.305Z,-5.80
2022-12-17T17:39:09.374Z,-5.90
2022-12-17T17:41:36.886Z,-5.90
2022-12-17T17:44:06.088Z,-5.90
2022-12-17T17:46:33.370Z,-5.90
2022-12-17T17:49:02.538Z,-5.90
2022-12-17T17:52:08.005Z,-5.90
2022-12-17T17:54:20.827Z,-5.90
2022-12-17T17:56:47.552Z,-6.00
2022-12-17T17:59:19.024Z,-5.90
2022-12-17T18:01:50.855Z,-6.00
2022-12-17T18:04:21.053Z,-6.00
2022-12-17T18:07:16.513Z,-6.00
2022-12-17T18:09:36.113Z,-6.10
2022-12-17T18:12:23.459Z,-6.10
2022-12-17T18:15:13.141Z,-6.10
2022-12-17T18:17:36.809Z,-6.10
2022-12-17T18:20:03.923Z,-6.10
2022-12-17T18:22:31.200Z,-6.20
2022-12-17T18:24:57.777Z,-6.20
2022-12-17T18:27:24.732Z,-6.30
2022-12-17T18:29:51.329Z,-6.40
2022-12-17T18:32:17.932Z,-6.40
2022-12-17T18:34:45.255Z,-6.40
2022-12-17T18:37:11.913Z,-6.40
2022-12-17T18:39:38.605Z,-6.40
2022-12-17T18:42:24.419Z,-6.40
2022-12-17T18:44:50.997Z,-6.40
2022-12-17T18:47:18.628Z,-6.40
2022-12-17T18:49:45.965Z,-6.30
2022-12-17T18:52:16.754Z,-6.30
2022-12-17T18:54:45.127Z,-6.20
2022-12-17T18:57:12.006Z,-6.20
2022-12-17T18:59:41.352Z,-6.20
2022-12-17T19:02:15.400Z,-6.20
2022-12-17T19:04:43.084Z,-6.20
2022-12-17T19:07:10.439Z,-6.20
2022-12-17T19:09:40.583Z,-6.20
2022-12-17T19:30:17.927Z,-6.20
2022-12-17T19:32:44.947Z,-6.20
2022-12-17T19:35:11.729Z,-6.20
2022-12-17T19:37:38.964Z,-6.20
2022-12-17T19:40:06.072Z,-6.20
2022-12-17T19:42:37.411Z,-6.20
2022-12-17T19:45:07.574Z,-6.20
2022-12-17T19:47:36.768Z,-6.10
2022-12-17T19:50:03.935Z,-6.10
2022-12-17T19:52:31.259Z,-6.20
2022-12-17T19:54:57.845Z,-6.10
2022-12-17T19:57:24.779Z,-6.10
2022-12-17T20:03:15.393Z,-6.10
2022-12-17T20:05:46.018Z,-6.10
2022-12-17T20:08:15.057Z,-6.10
2022-12-17T20:10:44.783Z,-6.00
2022-12-17T20:13:12.306Z,-6.00
2022-12-17T20:15:38.964Z,-6.00
2022-12-17T20:18:06.359Z,-6.00
2022-12-17T20:20:33.183Z,-6.00
2022-12-17T20:23:00.499Z,-5.90
2022-12-17T20:25:27.091Z,-5.80
2022-12-17T20:28:00.515Z,-5.80
2022-12-17T20:30:47.960Z,-5.80
2022-12-17T20:33:26.455Z,-5.80
2022-12-17T20:36:26.908Z,-5.70
2022-12-17T20:39:28.199Z,-5.70
2022-12-17T20:41:56.656Z,-5.60
2022-12-17T20:44:24.137Z,-5.60
2022-12-17T20:46:50.783Z,-5.60
2022-12-17T20:49:18.047Z,-5.50
2022-12-17T20:51:44.837Z,-5.60
2022-12-17T20:54:12.276Z,-5.50
2022-12-17T20:56:39.941Z,-5.50
2022-12-17T20:59:09.424Z,-5.50
2022-12-17T21:01:37.500Z,-5.50
2022-12-17T21:04:07.596Z,-5.50
2022-12-17T21:06:45.246Z,-5.40
2022-12-17T21:09:15.326Z,-5.50
2022-12-17T21:11:42.601Z,-5.40
2022-12-17T21:14:16.535Z,-5.40
2022-12-17T21:16:43.752Z,-5.40
2022-12-17T21:19:15.524Z,-5.50
2022-12-17T21:21:42.666Z,-5.40
2022-12-17T21:24:10.514Z,-5.40
2022-12-17T21:26:42.817Z,-5.40
2022-12-17T21:29:10.424Z,-5.40
2022-12-17T21:31:43.686Z,-5.40
2022-12-17T21:34:21.839Z,-5.40
2022-12-17T21:36:50.087Z,-5.40
2022-12-17T21:39:18.954Z,-5.50
2022-12-17T21:42:08.292Z,-5.50
2022-12-17T21:44:36.641Z,-5.50
2022-12-17T21:47:03.443Z,-5.50
2022-12-17T21:49:30.785Z,-5.50
2022-12-17T21:51:59.363Z,-5.50
2022-12-17T21:54:27.327Z,-5.50
2022-12-17T21:56:54.143Z,-5.50
2022-12-17T21:59:21.563Z,-5.60
2022-12-17T22:01:48.944Z,-5.60
2022-12-17T22:04:16.707Z,-5.60
2022-12-17T22:06:50.849Z,-5.60
2022-12-17T22:09:31.557Z,-5.70
2022-12-17T22:12:28.419Z,-5.60
2022-12-17T22:14:55.868Z,-5.60
2022-12-17T22:17:23.183Z,-5.60
2022-12-17T22:19:50.750Z,-5.70
2022-12-17T22:22:17.483Z,-5.60
2022-12-17T22:24:44.905Z,-5.60
2022-12-17T22:27:11.777Z,-5.60
2022-12-17T22:29:57.438Z,-5.60
2022-12-17T22:32:42.791Z,-5.50
2022-12-17T22:37:23.674Z,-5.50
2022-12-17T22:43:00.817Z,-5.50
2022-12-17T22:44:29.269Z,-5.50
2022-12-17T22:44:45.326Z,-5.40
2022-12-17T22:46:19.837Z,-5.50
2022-12-17T22:48:46.874Z,-5.50
2022-12-17T22:51:16.281Z,-5.50
2022-12-17T22:53:48.550Z,-5.50
2022-12-17T22:56:22.220Z,-5.50
2022-12-17T22:59:03.226Z,-5.50
2022-12-17T23:01:30.222Z,-5.50
2022-12-17T23:03:59.784Z,-5.50
2022-12-17T23:06:26.648Z,-5.50
2022-12-17T23:08:54.628Z,-5.50
2022-12-17T23:11:24.286Z,-5.60
2022-12-17T23:13:52.354Z,-5.60
2022-12-17T23:16:19.580Z,-5.60
2022-12-17T23:18:48.705Z,-5.60
2022-12-17T23:21:23.750Z,-5.70
2022-12-17T23:23:52.556Z,-5.70
2022-12-17T23:26:29.174Z,-5.80
2022-12-17T23:28:59.374Z,-5.80
2022-12-17T23:31:28.489Z,-5.80
2022-12-17T23:33:55.846Z,-5.70
2022-12-17T23:36:24.019Z,-5.70
2022-12-17T23:38:54.257Z,-5.70
2022-12-17T23:41:23.731Z,-5.80
2022-12-17T23:43:51.112Z,-5.80
2022-12-17T23:46:18.576Z,-5.80
2022-12-17T23:48:47.187Z,-5.80
2022-12-17T23:51:16.367Z,-5.80
2022-12-17T23:53:43.929Z,-5.80
2022-12-17T23:56:21.851Z,-5.80
2022-12-17T23:58:52.604Z,-5.80
